sensor_id;sensor_type;location;lat;lon;timestamp;pressure;altitude;pressure_sealevel;temperature;humidity
41703;BME280;861;48.808;9.006;2023-06-19T00:02:05;96674.88;;;23.73;52.20
41703;BME280;861;48.808;9.006;2023-06-19T00:04:31;96677.88;;;23.70;52.52
41703;BME280;861;48.808;9.006;2023-06-19T00:07:01;96673.38;;;23.72;52.35
41703;BME280;861;48.808;9.006;2023-06-19T00:09:28;96680.75;;;23.75;52.19
41703;BME280;861;48.808;9.006;2023-06-19T00:11:54;96680.75;;;23.75;52.05
41703;BME280;861;48.808;9.006;2023-06-19T00:14:21;96679.41;;;23.71;52.53
41703;BME280;861;48.808;9.006;2023-06-19T00:16:47;96684.97;;;23.71;52.58
41703;BME280;861;48.808;9.006;2023-06-19T00:19:14;96682.28;;;23.62;52.67
41703;BME280;861;48.808;9.006;2023-06-19T00:21:40;96679.69;;;23.44;53.29
41703;BME280;861;48.808;9.006;2023-06-19T00:24:10;96674.44;;;23.46;53.34
41703;BME280;861;48.808;9.006;2023-06-19T00:26:37;96683.78;;;23.34;53.40
41703;BME280;861;48.808;9.006;2023-06-19T00:29:03;96689.09;;;23.32;53.74
41703;BME280;861;48.808;9.006;2023-06-19T00:31:30;96686.56;;;23.19;53.51
41703;BME280;861;48.808;9.006;2023-06-19T00:33:58;96684.59;;;23.11;54.18
41703;BME280;861;48.808;9.006;2023-06-19T00:36:24;96685.88;;;23.10;54.24
41703;BME280;861;48.808;9.006;2023-06-19T00:38:52;96681.84;;;23.11;54.05
41703;BME280;861;48.808;9.006;2023-06-19T00:41:20;96684.59;;;23.11;54.33
41703;BME280;861;48.808;9.006;2023-06-19T00:43:48;96681.84;;;23.11;54.40
41703;BME280;861;48.808;9.006;2023-06-19T00:46:14;96688.56;;;23.19;54.08
41703;BME280;861;48.808;9.006;2023-06-19T00:48:41;96691.03;;;23.17;54.11
41703;BME280;861;48.808;9.006;2023-06-19T00:51:08;96694.50;;;23.12;53.96
41703;BME280;861;48.808;9.006;2023-06-19T00:53:36;96702.13;;;23.02;54.34
41703;BME280;861;48.808;9.006;2023-06-19T00:56:05;96713.63;;;23.10;54.70
41703;BME280;861;48.808;9.006;2023-06-19T00:58:33;96735.56;;;23.08;54.81
41703;BME280;861;48.808;9.006;2023-06-19T01:00:59;96751.34;;;23.02;54.95
41703;BME280;861;48.808;9.006;2023-06-19T01:03:26;96761.53;;;22.81;55.46
41703;BME280;861;48.808;9.006;2023-06-19T01:05:55;96746.28;;;23.00;54.86
41703;BME280;861;48.808;9.006;2023-06-19T01:11:21;96750.53;;;23.25;54.44
41703;BME280;861;48.808;9.006;2023-06-19T01:14:08;96749.69;;;23.19;54.60
41703;BME280;861;48.808;9.006;2023-06-19T01:16:39;96749.84;;;23.15;55.29
41703;BME280;861;48.808;9.006;2023-06-19T01:19:20;96759.13;;;23.12;55.42
41703;BME280;861;48.808;9.006;2023-06-19T01:21:49;96764.22;;;23.14;55.25
41703;BME280;861;48.808;9.006;2023-06-19T01:24:16;96765.88;;;23.20;55.27
41703;BME280;861;48.808;9.006;2023-06-19T01:26:43;96765.41;;;23.22;55.20
41703;BME280;861;48.808;9.006;2023-06-19T01:29:18;96765.34;;;23.07;56.14
41703;BME280;861;48.808;9.006;2023-06-19T01:32:02;96765.72;;;23.00;56.02
41703;BME280;861;48.808;9.006;2023-06-19T01:34:35;96779.53;;;23.09;56.38
41703;BME280;861;48.808;9.006;2023-06-19T01:37:05;96772.88;;;22.92;56.82
41703;BME280;861;48.808;9.006;2023-06-19T01:39:34;96771.56;;;23.02;56.98
41703;BME280;861;48.808;9.006;2023-06-19T01:42:04;96774.44;;;23.08;57.20
41703;BME280;861;48.808;9.006;2023-06-19T01:44:31;96786.34;;;23.08;57.72
41703;BME280;861;48.808;9.006;2023-06-19T01:46:59;96783.59;;;22.99;57.80
41703;BME280;861;48.808;9.006;2023-06-19T01:49:25;96785.94;;;23.01;58.28
41703;BME280;861;48.808;9.006;2023-06-19T01:51:52;96783.34;;;22.97;58.29
41703;BME280;861;48.808;9.006;2023-06-19T01:54:19;96782.38;;;23.00;58.50
41703;BME280;861;48.808;9.006;2023-06-19T01:56:46;96778.47;;;23.07;58.31
41703;BME280;861;48.808;9.006;2023-06-19T01:59:13;96770.56;;;23.14;57.99
41703;BME280;861;48.808;9.006;2023-06-19T02:01:39;96769.53;;;23.03;58.29
41703;BME280;861;48.808;9.006;2023-06-19T02:04:06;96773.44;;;22.96;58.67
41703;BME280;861;48.808;9.006;2023-06-19T02:06:33;96760.81;;;22.95;58.76
41703;BME280;861;48.808;9.006;2023-06-19T02:09:00;96766.84;;;22.94;59.51
41703;BME280;861;48.808;9.006;2023-06-19T02:11:27;96753.34;;;23.01;59.16
41703;BME280;861;48.808;9.006;2023-06-19T02:13:53;96754.00;;;22.96;59.35
41703;BME280;861;48.808;9.006;2023-06-19T02:16:20;96758.28;;;22.83;59.41
41703;BME280;861;48.808;9.006;2023-06-19T02:18:46;96754.31;;;22.75;59.69
41703;BME280;861;48.808;9.006;2023-06-19T02:21:13;96750.47;;;22.72;59.84
41703;BME280;861;48.808;9.006;2023-06-19T02:23:39;96752.81;;;22.64;60.29
41703;BME280;861;48.808;9.006;2023-06-19T02:26:06;96756.31;;;22.74;59.81
41703;BME280;861;48.808;9.006;2023-06-19T02:28:33;96755.97;;;22.81;59.40
41703;BME280;861;48.808;9.006;2023-06-19T02:30:59;96753.50;;;22.83;59.84
41703;BME280;861;48.808;9.006;2023-06-19T02:33:26;96751.78;;;22.86;59.47
41703;BME280;861;48.808;9.006;2023-06-19T02:35:52;96752.66;;;22.68;60.25
41703;BME280;861;48.808;9.006;2023-06-19T02:38:28;96757.16;;;22.65;60.43
41703;BME280;861;48.808;9.006;2023-06-19T02:40:56;96764.28;;;22.57;60.74
41703;BME280;861;48.808;9.006;2023-06-19T02:43:30;96763.59;;;22.72;60.07
41703;BME280;861;48.808;9.006;2023-06-19T02:45:57;96766.53;;;22.68;60.21
41703;BME280;861;48.808;9.006;2023-06-19T02:48:23;96773.88;;;22.56;60.83
41703;BME280;861;48.808;9.006;2023-06-19T02:50:50;96769.47;;;22.64;61.03
41703;BME280;861;48.808;9.006;2023-06-19T02:53:16;96773.09;;;22.56;61.06
41703;BME280;861;48.808;9.006;2023-06-19T02:55:43;96776.88;;;22.67;60.85
41703;BME280;861;48.808;9.006;2023-06-19T02:58:09;96784.97;;;22.47;61.23
41703;BME280;861;48.808;9.006;2023-06-19T03:00:36;96777.94;;;22.28;61.86
41703;BME280;861;48.808;9.006;2023-06-19T03:03:03;96778.78;;;22.20;62.52
41703;BME280;861;48.808;9.006;2023-06-19T03:05:30;96783.56;;;22.52;61.82
41703;BME280;861;48.808;9.006;2023-06-19T03:07:57;96790.16;;;22.63;61.01
41703;BME280;861;48.808;9.006;2023-06-19T03:10:24;96791.69;;;22.64;61.04
41703;BME280;861;48.808;9.006;2023-06-19T03:12:50;96791.69;;;22.64;60.98
41703;BME280;861;48.808;9.006;2023-06-19T03:15:17;96791.13;;;22.84;60.41
41703;BME280;861;48.808;9.006;2023-06-19T03:17:44;96797.47;;;22.76;60.37
41703;BME280;861;48.808;9.006;2023-06-19T03:20:11;96796.59;;;22.69;61.03
41703;BME280;861;48.808;9.006;2023-06-19T03:22:42;96792.50;;;22.56;61.44
41703;BME280;861;48.808;9.006;2023-06-19T03:25:09;96801.63;;;22.56;61.32
41703;BME280;861;48.808;9.006;2023-06-19T03:27:36;96797.84;;;22.68;60.74
41703;BME280;861;48.808;9.006;2023-06-19T03:30:04;96798.38;;;22.49;61.08
41703;BME280;861;48.808;9.006;2023-06-19T03:32:33;96801.81;;;22.35;61.13
41703;BME280;861;48.808;9.006;2023-06-19T03:35:01;96804.09;;;22.45;60.95
41703;BME280;861;48.808;9.006;2023-06-19T03:37:28;96817.31;;;22.50;60.80
41703;BME280;861;48.808;9.006;2023-06-19T03:39:55;96817.28;;;22.68;60.70
41703;BME280;861;48.808;9.006;2023-06-19T03:42:22;96813.97;;;22.46;61.25
41703;BME280;861;48.808;9.006;2023-06-19T03:44:48;96818.94;;;22.33;61.81
41703;BME280;861;48.808;9.006;2023-06-19T03:47:15;96815.00;;;22.16;62.39
41703;BME280;861;48.808;9.006;2023-06-19T03:49:42;96827.53;;;22.44;61.64
41703;BME280;861;48.808;9.006;2023-06-19T03:52:09;96832.44;;;22.49;61.36
41703;BME280;861;48.808;9.006;2023-06-19T03:54:36;96834.78;;;22.42;61.48
41703;BME280;861;48.808;9.006;2023-06-19T03:57:02;96834.94;;;22.38;61.98
41703;BME280;861;48.808;9.006;2023-06-19T03:59:29;96830.94;;;22.39;62.22
41703;BME280;861;48.808;9.006;2023-06-19T04:01:56;96840.50;;;22.38;62.13
41703;BME280;861;48.808;9.006;2023-06-19T04:04:22;96840.47;;;22.47;62.22
41703;BME280;861;48.808;9.006;2023-06-19T04:06:49;96851.66;;;22.71;61.99
41703;BME280;861;48.808;9.006;2023-06-19T04:09:15;96850.34;;;22.39;62.92
41703;BME280;861;48.808;9.006;2023-06-19T04:11:42;96850.59;;;22.18;63.58
41703;BME280;861;48.808;9.006;2023-06-19T04:14:08;96845.69;;;22.04;64.64
41703;BME280;861;48.808;9.006;2023-06-19T04:16:36;96844.31;;;21.99;65.26
41703;BME280;861;48.808;9.006;2023-06-19T04:19:02;96840.59;;;22.02;65.00
41703;BME280;861;48.808;9.006;2023-06-19T04:21:29;96838.16;;;22.04;65.07
41703;BME280;861;48.808;9.006;2023-06-19T04:23:55;96840.47;;;21.88;65.52
41703;BME280;861;48.808;9.006;2023-06-19T04:26:22;96848.31;;;21.71;66.49
41703;BME280;861;48.808;9.006;2023-06-19T04:28:50;96843.72;;;21.68;66.28
41703;BME280;861;48.808;9.006;2023-06-19T04:31:17;96844.94;;;21.67;67.19
41703;BME280;861;48.808;9.006;2023-06-19T04:33:48;96835.84;;;21.85;67.04
41703;BME280;861;48.808;9.006;2023-06-19T04:36:15;96835.69;;;21.97;66.27
41703;BME280;861;48.808;9.006;2023-06-19T04:38:42;96832.75;;;21.74;67.04
41703;BME280;861;48.808;9.006;2023-06-19T04:41:11;96831.84;;;21.77;67.70
41703;BME280;861;48.808;9.006;2023-06-19T04:43:38;96826.75;;;22.02;66.74
41703;BME280;861;48.808;9.006;2023-06-19T04:46:08;96835.56;;;21.92;67.38
41703;BME280;861;48.808;9.006;2023-06-19T04:48:34;96830.34;;;21.76;67.82
41703;BME280;861;48.808;9.006;2023-06-19T04:51:03;96840.31;;;21.91;67.91
41703;BME280;861;48.808;9.006;2023-06-19T04:53:30;96840.03;;;21.80;68.16
41703;BME280;861;48.808;9.006;2023-06-19T04:55:56;96839.69;;;21.96;68.08
41703;BME280;861;48.808;9.006;2023-06-19T04:58:23;96835.84;;;21.94;67.77
41703;BME280;861;48.808;9.006;2023-06-19T05:00:49;96838.16;;;21.86;68.14
41703;BME280;861;48.808;9.006;2023-06-19T05:03:20;96848.47;;;21.95;68.07
41703;BME280;861;48.808;9.006;2023-06-19T05:05:48;96851.34;;;22.09;67.01
41703;BME280;861;48.808;9.006;2023-06-19T05:08:14;96843.50;;;22.17;67.20
41703;BME280;861;48.808;9.006;2023-06-19T05:10:41;96846.19;;;22.53;66.01
41703;BME280;861;48.808;9.006;2023-06-19T05:13:07;96851.44;;;22.42;66.40
41703;BME280;861;48.808;9.006;2023-06-19T05:15:34;96847.09;;;22.59;65.81
41703;BME280;861;48.808;9.006;2023-06-19T05:18:01;96853.41;;;22.50;66.36
41703;BME280;861;48.808;9.006;2023-06-19T05:20:27;96858.81;;;22.54;65.97
41703;BME280;861;48.808;9.006;2023-06-19T05:22:54;96859.00;;;22.41;66.78
41703;BME280;861;48.808;9.006;2023-06-19T05:25:20;96859.63;;;22.36;67.09
41703;BME280;861;48.808;9.006;2023-06-19T05:27:49;96861.69;;;22.09;67.94
41703;BME280;861;48.808;9.006;2023-06-19T05:30:16;96857.69;;;22.10;68.03
41703;BME280;861;48.808;9.006;2023-06-19T05:32:43;96852.38;;;22.30;67.53
41703;BME280;861;48.808;9.006;2023-06-19T05:35:09;96857.38;;;22.17;67.86
41703;BME280;861;48.808;9.006;2023-06-19T05:37:36;96866.16;;;22.15;68.25
41703;BME280;861;48.808;9.006;2023-06-19T05:40:06;96865.63;;;22.35;67.65
41703;BME280;861;48.808;9.006;2023-06-19T05:42:33;96868.25;;;22.38;67.86
41703;BME280;861;48.808;9.006;2023-06-19T05:44:59;96875.47;;;22.45;67.69
41703;BME280;861;48.808;9.006;2023-06-19T05:47:26;96873.59;;;22.51;67.09
41703;BME280;861;48.808;9.006;2023-06-19T05:49:52;96877.47;;;22.44;67.31
41703;BME280;861;48.808;9.006;2023-06-19T05:52:19;96874.75;;;22.35;67.63
41703;BME280;861;48.808;9.006;2023-06-19T05:54:46;96881.53;;;22.34;67.83
41703;BME280;861;48.808;9.006;2023-06-19T05:57:13;96885.06;;;22.53;67.58
41703;BME280;861;48.808;9.006;2023-06-19T05:59:42;96880.09;;;22.57;67.62
41703;BME280;861;48.808;9.006;2023-06-19T06:02:09;96883.59;;;22.66;67.31
41703;BME280;861;48.808;9.006;2023-06-19T06:04:35;96886.38;;;22.66;67.29
41703;BME280;861;48.808;9.006;2023-06-19T06:07:02;96885.22;;;22.82;66.89
41703;BME280;861;48.808;9.006;2023-06-19T06:09:29;96892.72;;;23.00;66.06
41703;BME280;861;48.808;9.006;2023-06-19T06:11:56;96895.16;;;23.07;65.89
41703;BME280;861;48.808;9.006;2023-06-19T06:14:24;96887.88;;;23.09;66.46
41703;BME280;861;48.808;9.006;2023-06-19T06:16:52;96891.28;;;23.13;66.10
41703;BME280;861;48.808;9.006;2023-06-19T06:19:21;96901.44;;;23.16;65.96
41703;BME280;861;48.808;9.006;2023-06-19T06:21:49;96902.84;;;23.12;66.43
41703;BME280;861;48.808;9.006;2023-06-19T06:24:16;96899.88;;;23.15;66.90
41703;BME280;861;48.808;9.006;2023-06-19T06:26:43;96909.69;;;23.34;65.87
41703;BME280;861;48.808;9.006;2023-06-19T06:29:10;96917.28;;;23.57;64.98
41703;BME280;861;48.808;9.006;2023-06-19T06:31:39;96916.78;;;23.59;64.85
41703;BME280;861;48.808;9.006;2023-06-19T06:34:08;96920.25;;;23.45;65.31
41703;BME280;861;48.808;9.006;2023-06-19T06:36:34;96933.25;;;23.48;65.68
41703;BME280;861;48.808;9.006;2023-06-19T06:39:01;96930.84;;;24.02;62.85
41703;BME280;861;48.808;9.006;2023-06-19T06:41:28;96936.63;;;23.90;62.99
41703;BME280;861;48.808;9.006;2023-06-19T06:43:55;96930.25;;;23.98;62.50
41703;BME280;861;48.808;9.006;2023-06-19T06:46:22;96931.50;;;23.74;63.71
41703;BME280;861;48.808;9.006;2023-06-19T06:48:50;96927.53;;;23.66;63.70
41703;BME280;861;48.808;9.006;2023-06-19T06:51:17;96932.28;;;23.74;64.11
41703;BME280;861;48.808;9.006;2023-06-19T06:53:44;96925.59;;;23.81;63.38
41703;BME280;861;48.808;9.006;2023-06-19T06:56:11;96936.50;;;23.84;63.15
41703;BME280;861;48.808;9.006;2023-06-19T06:58:38;96931.81;;;23.99;63.34
41703;BME280;861;48.808;9.006;2023-06-19T07:01:05;96935.56;;;24.26;62.36
41703;BME280;861;48.808;9.006;2023-06-19T07:03:32;96941.44;;;24.28;63.00
41703;BME280;861;48.808;9.006;2023-06-19T07:05:59;96942.28;;;24.19;62.14
41703;BME280;861;48.808;9.006;2023-06-19T07:08:25;96948.22;;;24.12;63.33
41703;BME280;861;48.808;9.006;2023-06-19T07:10:52;96954.66;;;24.18;63.07
41703;BME280;861;48.808;9.006;2023-06-19T07:13:19;96952.09;;;24.29;62.77
41703;BME280;861;48.808;9.006;2023-06-19T07:15:45;96950.09;;;24.44;61.06
41703;BME280;861;48.808;9.006;2023-06-19T07:18:12;96952.38;;;24.46;61.83
41703;BME280;861;48.808;9.006;2023-06-19T07:20:39;96958.44;;;24.30;61.89
41703;BME280;861;48.808;9.006;2023-06-19T07:23:06;96956.31;;;24.25;62.60
41703;BME280;861;48.808;9.006;2023-06-19T07:25:32;96959.78;;;24.34;62.37
41703;BME280;861;48.808;9.006;2023-06-19T07:28:00;96962.19;;;24.41;62.40
41703;BME280;861;48.808;9.006;2023-06-19T07:30:28;96974.84;;;24.57;62.24
41703;BME280;861;48.808;9.006;2023-06-19T07:32:55;96973.84;;;24.83;60.94
41703;BME280;861;48.808;9.006;2023-06-19T07:35:21;96969.53;;;24.82;61.46
41703;BME280;861;48.808;9.006;2023-06-19T07:37:48;96975.25;;;25.08;60.06
41703;BME280;861;48.808;9.006;2023-06-19T07:40:15;96979.22;;;25.01;60.26
41703;BME280;861;48.808;9.006;2023-06-19T07:42:41;96978.72;;;24.88;61.15
41703;BME280;861;48.808;9.006;2023-06-19T07:45:09;96980.59;;;24.91;61.75
41703;BME280;861;48.808;9.006;2023-06-19T07:47:36;96985.69;;;24.93;61.27
41703;BME280;861;48.808;9.006;2023-06-19T07:50:03;96986.91;;;25.06;60.93
41703;BME280;861;48.808;9.006;2023-06-19T07:52:30;96980.66;;;25.11;60.19
41703;BME280;861;48.808;9.006;2023-06-19T07:54:58;96976.41;;;25.16;60.91
41703;BME280;861;48.808;9.006;2023-06-19T07:57:26;96975.91;;;25.46;60.59
41703;BME280;861;48.808;9.006;2023-06-19T07:59:55;96974.13;;;25.84;58.99
41703;BME280;861;48.808;9.006;2023-06-19T08:02:22;96968.09;;;25.91;58.59
41703;BME280;861;48.808;9.006;2023-06-19T08:04:48;96966.16;;;25.97;58.33
41703;BME280;861;48.808;9.006;2023-06-19T08:07:15;96966.63;;;25.75;59.14
41703;BME280;861;48.808;9.006;2023-06-19T08:09:42;96964.38;;;26.14;57.23
41703;BME280;861;48.808;9.006;2023-06-19T08:12:09;96970.78;;;26.20;57.81
41703;BME280;861;48.808;9.006;2023-06-19T08:14:36;96975.22;;;26.32;56.07
41703;BME280;861;48.808;9.006;2023-06-19T08:17:04;96963.06;;;26.35;57.18
41703;BME280;861;48.808;9.006;2023-06-19T08:19:31;96971.75;;;26.62;56.41
41703;BME280;861;48.808;9.006;2023-06-19T08:21:58;96956.22;;;26.87;54.06
41703;BME280;861;48.808;9.006;2023-06-19T08:24:24;96961.28;;;26.83;54.92
41703;BME280;861;48.808;9.006;2023-06-19T08:26:51;96946.13;;;26.95;54.71
41703;BME280;861;48.808;9.006;2023-06-19T08:29:19;96958.28;;;27.18;53.84
41703;BME280;861;48.808;9.006;2023-06-19T08:31:46;96944.81;;;27.22;53.16
41703;BME280;861;48.808;9.006;2023-06-19T08:34:12;96945.19;;;27.03;52.93
41703;BME280;861;48.808;9.006;2023-06-19T08:36:39;96950.66;;;27.18;51.36
41703;BME280;861;48.808;9.006;2023-06-19T08:39:06;96948.84;;;27.15;52.34
41703;BME280;861;48.808;9.006;2023-06-19T08:41:38;96944.06;;;27.21;52.59
41703;BME280;861;48.808;9.006;2023-06-19T08:44:06;96946.81;;;27.16;53.34
41703;BME280;861;48.808;9.006;2023-06-19T08:46:35;96941.44;;;27.12;53.78
41703;BME280;861;48.808;9.006;2023-06-19T08:49:07;96945.16;;;27.29;52.97
41703;BME280;861;48.808;9.006;2023-06-19T08:51:36;96943.13;;;27.72;52.09
41703;BME280;861;48.808;9.006;2023-06-19T08:54:05;96940.25;;;28.08;51.23
41703;BME280;861;48.808;9.006;2023-06-19T08:56:35;96943.41;;;28.38;50.58
41703;BME280;861;48.808;9.006;2023-06-19T08:59:13;96942.63;;;28.43;49.87
41703;BME280;861;48.808;9.006;2023-06-19T09:01:52;96940.09;;;28.39;49.94
41703;BME280;861;48.808;9.006;2023-06-19T09:04:26;96947.59;;;27.95;51.58
41703;BME280;861;48.808;9.006;2023-06-19T09:07:00;96939.56;;;27.71;52.72
41703;BME280;861;48.808;9.006;2023-06-19T09:09:29;96942.50;;;27.51;53.52
41703;BME280;861;48.808;9.006;2023-06-19T09:12:11;96948.75;;;27.77;52.42
41703;BME280;861;48.808;9.006;2023-06-19T09:14:45;96938.28;;;28.31;51.20
41703;BME280;861;48.808;9.006;2023-06-19T09:17:21;96947.97;;;28.30;50.50
41703;BME280;861;48.808;9.006;2023-06-19T09:19:54;96936.00;;;28.46;50.87
41703;BME280;861;48.808;9.006;2023-06-19T09:22:23;96946.94;;;28.38;51.51
41703;BME280;861;48.808;9.006;2023-06-19T09:24:53;96937.34;;;28.67;51.00
41703;BME280;861;48.808;9.006;2023-06-19T09:27:20;96940.69;;;28.77;50.87
41703;BME280;861;48.808;9.006;2023-06-19T09:29:50;96939.41;;;28.89;50.90
41703;BME280;861;48.808;9.006;2023-06-19T09:32:24;96935.59;;;28.86;50.88
41703;BME280;861;48.808;9.006;2023-06-19T09:34:55;96941.16;;;28.59;52.02
41703;BME280;861;48.808;9.006;2023-06-19T09:37:31;96945.41;;;28.26;52.58
41703;BME280;861;48.808;9.006;2023-06-19T09:40:04;96942.56;;;28.15;51.69
41703;BME280;861;48.808;9.006;2023-06-19T09:42:48;96944.56;;;28.04;52.99
41703;BME280;861;48.808;9.006;2023-06-19T09:45:24;96936.75;;;28.35;51.14
41703;BME280;861;48.808;9.006;2023-06-19T09:47:55;96941.94;;;28.54;51.99
41703;BME280;861;48.808;9.006;2023-06-19T09:50:24;96944.00;;;28.75;50.63
41703;BME280;861;48.808;9.006;2023-06-19T09:52:55;96948.06;;;28.80;51.48
41703;BME280;861;48.808;9.006;2023-06-19T09:55:25;96937.09;;;29.31;49.18
41703;BME280;861;48.808;9.006;2023-06-19T09:57:56;96930.97;;;29.38;49.02
41703;BME280;861;48.808;9.006;2023-06-19T10:00:23;96937.88;;;29.32;50.08
41703;BME280;861;48.808;9.006;2023-06-19T10:02:57;96929.44;;;29.48;48.92
41703;BME280;861;48.808;9.006;2023-06-19T10:05:33;96940.13;;;29.66;49.71
41703;BME280;861;48.808;9.006;2023-06-19T10:08:02;96930.31;;;29.95;50.89
41703;BME280;861;48.808;9.006;2023-06-19T10:10:31;96941.09;;;29.80;49.19
41703;BME280;861;48.808;9.006;2023-06-19T10:13:16;96938.38;;;29.41;49.61
41703;BME280;861;48.808;9.006;2023-06-19T10:15:45;96939.13;;;29.36;50.06
41703;BME280;861;48.808;9.006;2023-06-19T10:18:18;96948.31;;;29.42;50.48
41703;BME280;861;48.808;9.006;2023-06-19T10:20:46;96947.78;;;29.66;49.38
41703;BME280;861;48.808;9.006;2023-06-19T10:23:24;96943.41;;;29.59;49.04
41703;BME280;861;48.808;9.006;2023-06-19T10:26:01;96948.28;;;29.59;49.24
41703;BME280;861;48.808;9.006;2023-06-19T10:28:34;96943.72;;;29.67;48.96
41703;BME280;861;48.808;9.006;2023-06-19T10:31:07;96953.66;;;29.68;50.04
41703;BME280;861;48.808;9.006;2023-06-19T10:33:37;96954.88;;;29.89;49.03
41703;BME280;861;48.808;9.006;2023-06-19T10:36:18;96942.84;;;29.94;49.21
41703;BME280;861;48.808;9.006;2023-06-19T10:38:49;96937.19;;;30.00;48.80
41703;BME280;861;48.808;9.006;2023-06-19T10:41:26;96933.41;;;29.92;49.65
41703;BME280;861;48.808;9.006;2023-06-19T10:44:07;96930.59;;;29.97;49.16
41703;BME280;861;48.808;9.006;2023-06-19T10:46:39;96925.94;;;30.05;48.87
41703;BME280;861;48.808;9.006;2023-06-19T10:49:08;96933.09;;;30.06;48.59
41703;BME280;861;48.808;9.006;2023-06-19T10:51:41;96928.56;;;29.92;49.45
41703;BME280;861;48.808;9.006;2023-06-19T10:54:10;96929.56;;;29.95;50.39
41703;BME280;861;48.808;9.006;2023-06-19T10:56:37;96930.00;;;30.10;49.45
41703;BME280;861;48.808;9.006;2023-06-19T10:59:10;96929.41;;;30.33;49.71
41703;BME280;861;48.808;9.006;2023-06-19T11:01:49;96909.81;;;30.57;48.87
41703;BME280;861;48.808;9.006;2023-06-19T11:04:17;96907.53;;;30.91;48.24
41703;BME280;861;48.808;9.006;2023-06-19T11:06:45;96911.28;;;31.34;47.23
41703;BME280;861;48.808;9.006;2023-06-19T11:09:14;96912.72;;;31.65;45.52
41703;BME280;861;48.808;9.006;2023-06-19T11:11:46;96915.56;;;31.41;45.62
41703;BME280;861;48.808;9.006;2023-06-19T11:14:16;96915.75;;;31.18;46.11
41703;BME280;861;48.808;9.006;2023-06-19T11:16:46;96914.72;;;31.16;46.42
41703;BME280;861;48.808;9.006;2023-06-19T11:19:20;96910.41;;;31.15;46.79
41703;BME280;861;48.808;9.006;2023-06-19T11:21:53;96912.19;;;31.12;46.51
41703;BME280;861;48.808;9.006;2023-06-19T11:24:22;96908.47;;;31.34;47.28
41703;BME280;861;48.808;9.006;2023-06-19T11:26:51;96912.84;;;31.54;45.75
41703;BME280;861;48.808;9.006;2023-06-19T11:29:30;96912.72;;;31.11;46.16
41703;BME280;861;48.808;9.006;2023-06-19T11:32:12;96910.63;;;30.87;47.86
41703;BME280;861;48.808;9.006;2023-06-19T11:34:40;96903.38;;;31.33;47.91
41703;BME280;861;48.808;9.006;2023-06-19T11:37:18;96910.03;;;31.78;46.24
41703;BME280;861;48.808;9.006;2023-06-19T11:39:47;96906.91;;;32.24;45.71
41703;BME280;861;48.808;9.006;2023-06-19T11:42:16;96909.50;;;32.40;45.05
41703;BME280;861;48.808;9.006;2023-06-19T11:44:59;96887.25;;;32.37;44.80
41703;BME280;861;48.808;9.006;2023-06-19T11:47:31;96894.09;;;32.60;44.15
41703;BME280;861;48.808;9.006;2023-06-19T11:49:59;96899.25;;;32.75;44.05
41703;BME280;861;48.808;9.006;2023-06-19T11:52:27;96900.31;;;32.71;43.09
41703;BME280;861;48.808;9.006;2023-06-19T11:54:53;96903.63;;;32.57;43.92
41703;BME280;861;48.808;9.006;2023-06-19T11:57:20;96905.44;;;32.36;44.80
41703;BME280;861;48.808;9.006;2023-06-19T11:59:46;96900.03;;;32.19;44.05
41703;BME280;861;48.808;9.006;2023-06-19T12:02:13;96900.09;;;31.71;45.36
41703;BME280;861;48.808;9.006;2023-06-19T12:04:41;96896.38;;;31.82;45.05
41703;BME280;861;48.808;9.006;2023-06-19T12:07:07;96894.19;;;31.75;45.37
41703;BME280;861;48.808;9.006;2023-06-19T12:09:35;96891.13;;;31.73;47.46
41703;BME280;861;48.808;9.006;2023-06-19T12:12:02;96893.13;;;31.78;45.21
41703;BME280;861;48.808;9.006;2023-06-19T12:14:28;96887.34;;;31.46;45.82
41703;BME280;861;48.808;9.006;2023-06-19T12:16:55;96882.28;;;31.63;45.03
41703;BME280;861;48.808;9.006;2023-06-19T12:19:21;96887.13;;;31.87;44.93
41703;BME280;861;48.808;9.006;2023-06-19T12:21:48;96885.63;;;31.62;45.70
41703;BME280;861;48.808;9.006;2023-06-19T12:24:14;96885.59;;;31.43;46.17
41703;BME280;861;48.808;9.006;2023-06-19T12:26:41;96884.56;;;31.65;45.24
41703;BME280;861;48.808;9.006;2023-06-19T12:29:08;96876.31;;;31.48;45.47
41703;BME280;861;48.808;9.006;2023-06-19T12:31:36;96880.09;;;31.75;47.11
41703;BME280;861;48.808;9.006;2023-06-19T12:34:03;96873.81;;;32.24;46.10
41703;BME280;861;48.808;9.006;2023-06-19T12:36:32;96879.63;;;32.82;43.14
41703;BME280;861;48.808;9.006;2023-06-19T12:39:00;96881.59;;;33.19;43.34
41703;BME280;861;48.808;9.006;2023-06-19T12:41:27;96879.38;;;33.43;42.22
41703;BME280;861;48.808;9.006;2023-06-19T12:43:53;96873.41;;;33.47;42.48
41703;BME280;861;48.808;9.006;2023-06-19T12:46:20;96868.06;;;33.43;42.20
41703;BME280;861;48.808;9.006;2023-06-19T12:48:47;96867.19;;;33.61;42.81
41703;BME280;861;48.808;9.006;2023-06-19T12:51:18;96870.66;;;34.06;42.41
41703;BME280;861;48.808;9.006;2023-06-19T12:53:45;96867.88;;;34.27;41.92
41703;BME280;861;48.808;9.006;2023-06-19T12:56:11;96860.34;;;33.96;41.67
41703;BME280;861;48.808;9.006;2023-06-19T12:58:38;96856.31;;;34.38;42.77
41703;BME280;861;48.808;9.006;2023-06-19T13:01:04;96858.56;;;34.73;41.76
41703;BME280;861;48.808;9.006;2023-06-19T13:03:31;96857.50;;;34.76;41.60
41703;BME280;861;48.808;9.006;2023-06-19T13:05:58;96858.47;;;34.45;40.26
41703;BME280;861;48.808;9.006;2023-06-19T13:08:24;96855.81;;;34.27;41.28
41703;BME280;861;48.808;9.006;2023-06-19T13:10:51;96851.16;;;34.16;41.09
41703;BME280;861;48.808;9.006;2023-06-19T13:13:17;96852.94;;;33.93;40.33
41703;BME280;861;48.808;9.006;2023-06-19T13:16:04;96847.84;;;33.52;41.93
41703;BME280;861;48.808;9.006;2023-06-19T13:18:31;96850.75;;;33.86;42.22
41703;BME280;861;48.808;9.006;2023-06-19T13:20:57;96847.81;;;34.51;40.66
41703;BME280;861;48.808;9.006;2023-06-19T13:23:24;96841.94;;;34.70;40.55
41703;BME280;861;48.808;9.006;2023-06-19T13:25:50;96838.78;;;34.94;40.68
41703;BME280;861;48.808;9.006;2023-06-19T13:28:17;96835.13;;;34.86;39.90
41703;BME280;861;48.808;9.006;2023-06-19T13:30:44;96830.97;;;34.66;39.57
41703;BME280;861;48.808;9.006;2023-06-19T13:33:12;96832.75;;;34.56;39.06